createdAt,value
2017-11-22T00:00:20.664Z,0
2017-11-22T00:01:29.297Z,0
2017-11-22T00:02:37.920Z,0
2017-11-22T00:03:46.548Z,0
2017-11-22T00:04:55.181Z,0
2017-11-22T00:06:03.822Z,0
2017-11-22T00:07:12.717Z,0
2017-11-22T00:08:21.334Z,0
2017-11-22T00:09:29.968Z,0
2017-11-22T00:10:38.599Z,0
2017-11-22T00:11:47.224Z,0
2017-11-22T00:12:55.845Z,0
2017-11-22T00:14:04.482Z,0
2017-11-22T00:15:13.383Z,0
2017-11-22T00:16:22.018Z,0
2017-11-22T00:17:30.641Z,0
2017-11-22T00:18:39.268Z,0
2017-11-22T00:19:47.894Z,0
2017-11-22T00:20:56.518Z,0
2017-11-22T00:22:05.143Z,0
2017-11-22T00:23:13.782Z,0
2017-11-22T00:24:22.414Z,0
2017-11-22T00:25:31.032Z,0
2017-11-22T00:26:39.666Z,0
2017-11-22T00:27:48.290Z,0
2017-11-22T00:28:56.916Z,0
2017-11-22T00:30:06.205Z,0
2017-11-22T00:31:14.832Z,0
2017-11-22T00:32:23.738Z,0
2017-11-22T00:33:32.355Z,0
2017-11-22T00:34:40.982Z,0
2017-11-22T00:35:49.615Z,0
2017-11-22T00:36:58.503Z,0
2017-11-22T00:38:07.408Z,0
2017-11-22T00:39:16.299Z,0
2017-11-22T00:40:24.943Z,0
2017-11-22T00:41:33.557Z,0
2017-11-22T00:42:42.179Z,0
2017-11-22T00:43:51.080Z,0
2017-11-22T00:44:59.698Z,0
2017-11-22T00:46:08.332Z,0
2017-11-22T00:47:16.959Z,0
2017-11-22T00:48:25.586Z,0
2017-11-22T00:49:34.210Z,0
2017-11-22T00:50:43.114Z,0
2017-11-22T00:51:51.740Z,0
2017-11-22T00:53:00.362Z,0
2017-11-22T00:54:08.994Z,0
2017-11-22T00:55:17.887Z,0
2017-11-22T00:56:26.781Z,0
2017-11-22T00:57:35.412Z,0
2017-11-22T00:58:44.033Z,0
2017-11-22T00:59:52.666Z,0
2017-11-22T01:01:01.560Z,0
2017-11-22T01:02:10.183Z,0
2017-11-22T01:03:18.817Z,0
2017-11-22T01:04:27.448Z,0
2017-11-22T01:05:36.070Z,0
2017-11-22T01:06:44.697Z,0
2017-11-22T01:07:53.322Z,0
2017-11-22T01:09:01.956Z,0
2017-11-22T01:10:10.582Z,0
2017-11-22T01:11:19.207Z,0
2017-11-22T01:12:27.839Z,0
2017-11-22T01:13:36.459Z,0
2017-11-22T01:14:45.081Z,0
2017-11-22T01:15:53.708Z,0
2017-11-22T01:17:02.335Z,0
2017-11-22T01:18:10.979Z,0
2017-11-22T01:19:19.592Z,0
2017-11-22T01:20:28.215Z,0
2017-11-22T01:21:37.127Z,0
2017-11-22T01:22:45.751Z,0
2017-11-22T01:23:54.386Z,0
2017-11-22T01:25:03.008Z,0
2017-11-22T01:26:11.638Z,0
2017-11-22T01:27:20.258Z,0
2017-11-22T01:28:28.889Z,0
2017-11-22T01:29:37.514Z,0
2017-11-22T01:30:46.146Z,0
2017-11-22T01:31:54.774Z,0
2017-11-22T01:33:03.400Z,0
2017-11-22T01:34:12.030Z,0
2017-11-22T01:35:20.658Z,0
2017-11-22T01:36:29.274Z,0
2017-11-22T01:37:38.169Z,0
2017-11-22T01:38:46.801Z,0
2017-11-22T01:39:55.420Z,0
2017-11-22T01:41:04.053Z,0
2017-11-22T01:42:12.678Z,0
2017-11-22T01:43:21.308Z,0
2017-11-22T01:44:29.937Z,0
2017-11-22T01:45:38.556Z,0
2017-11-22T01:46:47.182Z,0
2017-11-22T01:47:55.814Z,0
2017-11-22T01:49:04.709Z,0
2017-11-22T01:50:13.325Z,0
2017-11-22T01:51:21.955Z,0
2017-11-22T01:52:30.854Z,0
2017-11-22T01:53:39.489Z,0
2017-11-22T01:54:48.114Z,0
2017-11-22T01:55:56.737Z,0
2017-11-22T01:57:05.368Z,0
2017-11-22T01:58:13.999Z,0
2017-11-22T01:59:22.895Z,0
2017-11-22T02:00:31.524Z,0
2017-11-22T02:01:40.155Z,0
2017-11-22T02:02:48.783Z,0
2017-11-22T02:03:57.409Z,0
2017-11-22T02:05:06.037Z,0
2017-11-22T02:06:14.932Z,0
2017-11-22T02:07:23.555Z,0
2017-11-22T02:08:32.187Z,0
2017-11-22T02:09:40.816Z,0
2017-11-22T02:10:49.704Z,0
2017-11-22T02:11:58.341Z,0
2017-11-22T02:13:06.961Z,0
2017-11-22T02:14:15.594Z,0
2017-11-22T02:15:24.488Z,0
2017-11-22T02:16:33.104Z,0
2017-11-22T02:17:41.732Z,0
2017-11-22T02:18:50.362Z,0
2017-11-22T02:19:58.988Z,0
2017-11-22T02:21:07.612Z,0
2017-11-22T02:22:16.244Z,0
2017-11-22T02:23:25.138Z,0
2017-11-22T02:24:33.760Z,0
2017-11-22T02:25:42.393Z,0
2017-11-22T02:26:51.020Z,0
2017-11-22T02:27:59.644Z,0
2017-11-22T02:29:08.268Z,0
2017-11-22T02:30:16.888Z,0
2017-11-22T02:31:25.529Z,0
2017-11-22T02:32:34.158Z,0
2017-11-22T02:33:42.777Z,0
2017-11-22T02:34:51.412Z,0
2017-11-22T02:36:00.040Z,0
2017-11-22T02:37:08.664Z,0
2017-11-22T02:38:17.295Z,0
2017-11-22T02:39:25.921Z,0
2017-11-22T02:40:34.545Z,0
2017-11-22T02:41:43.175Z,0
2017-11-22T02:42:52.074Z,0
2017-11-22T02:44:00.709Z,0
2017-11-22T02:45:09.335Z,0
2017-11-22T02:46:17.960Z,0
2017-11-22T02:47:26.588Z,0
2017-11-22T02:48:35.222Z,0
2017-11-22T02:49:43.837Z,0
2017-11-22T02:50:52.465Z,0
2017-11-22T02:52:01.095Z,0
2017-11-22T02:53:09.719Z,0
2017-11-22T02:54:18.345Z,0
2017-11-22T02:55:26.976Z,0
2017-11-22T02:56:35.867Z,0
2017-11-22T02:57:44.762Z,0
2017-11-22T02:58:53.391Z,0
2017-11-22T03:00:02.012Z,0
2017-11-22T03:01:10.909Z,0
2017-11-22T03:02:19.794Z,0
2017-11-22T03:03:28.426Z,0
2017-11-22T03:04:37.054Z,0
2017-11-22T03:05:45.683Z,0
2017-11-22T03:06:54.313Z,0
2017-11-22T03:08:02.933Z,0
2017-11-22T03:09:11.570Z,0
2017-11-22T03:10:20.193Z,0
2017-11-22T03:11:28.832Z,0
2017-11-22T03:12:37.455Z,0
2017-11-22T03:13:46.086Z,0
2017-11-22T03:14:54.719Z,0
2017-11-22T03:16:03.350Z,0
2017-11-22T03:17:11.967Z,0
2017-11-22T03:18:20.601Z,0
2017-11-22T03:19:29.495Z,0
2017-11-22T03:20:38.108Z,0
2017-11-22T03:21:46.739Z,0
2017-11-22T03:22:55.370Z,0
2017-11-22T03:24:03.995Z,0
2017-11-22T03:25:12.628Z,0
2017-11-22T03:26:21.247Z,0
2017-11-22T03:27:29.874Z,0
2017-11-22T03:28:38.508Z,0
2017-11-22T03:29:47.125Z,0
2017-11-22T03:30:55.757Z,0
2017-11-22T03:32:04.383Z,0
2017-11-22T03:33:13.031Z,0
2017-11-22T03:34:21.922Z,0
2017-11-22T03:35:30.553Z,0
2017-11-22T03:36:39.177Z,0
2017-11-22T03:37:47.800Z,0
2017-11-22T03:38:56.433Z,0
2017-11-22T03:40:05.054Z,0
2017-11-22T03:41:13.680Z,0
2017-11-22T03:42:22.305Z,0
2017-11-22T03:43:30.930Z,0
2017-11-22T03:44:39.566Z,0
2017-11-22T03:45:48.192Z,0
2017-11-22T03:46:57.080Z,0
2017-11-22T03:48:05.713Z,0
2017-11-22T03:49:14.336Z,0
2017-11-22T03:50:22.959Z,0
2017-11-22T03:51:31.591Z,0
2017-11-22T03:52:40.480Z,0
2017-11-22T03:53:49.102Z,0
2017-11-22T03:54:57.733Z,0
2017-11-22T03:56:06.625Z,0
2017-11-22T03:57:15.258Z,0
2017-11-22T03:58:23.884Z,0
2017-11-22T03:59:32.506Z,0
2017-11-22T04:00:41.404Z,0
2017-11-22T04:01:50.028Z,0
2017-11-22T04:02:58.656Z,0
2017-11-22T04:04:07.285Z,0
2017-11-22T04:05:15.908Z,0
2017-11-22T04:06:24.542Z,0
2017-11-22T04:07:33.166Z,0
2017-11-22T04:08:41.792Z,0
2017-11-22T04:09:50.425Z,0
2017-11-22T04:10:59.042Z,0
2017-11-22T04:12:07.672Z,0
2017-11-22T04:13:16.296Z,0
2017-11-22T04:14:24.951Z,0
2017-11-22T04:15:33.877Z,0
2017-11-22T04:16:42.767Z,0
2017-11-22T04:17:51.395Z,0
2017-11-22T04:19:00.022Z,0
2017-11-22T04:20:08.653Z,0
2017-11-22T04:21:17.274Z,0
2017-11-22T04:22:25.927Z,0
2017-11-22T04:23:34.534Z,0
2017-11-22T04:24:43.441Z,0
2017-11-22T04:25:52.068Z,0
2017-11-22T04:27:00.700Z,0
2017-11-22T04:28:09.331Z,0
2017-11-22T04:29:17.959Z,0
2017-11-22T04:30:26.576Z,0
2017-11-22T04:31:35.208Z,0
2017-11-22T04:32:43.831Z,0
2017-11-22T04:33:52.468Z,0
2017-11-22T04:35:01.092Z,0
2017-11-22T04:36:09.717Z,0
2017-11-22T04:37:18.351Z,0
2017-11-22T04:38:26.971Z,0
2017-11-22T04:39:35.601Z,0
2017-11-22T04:40:44.490Z,0
2017-11-22T04:41:53.114Z,0
2017-11-22T04:43:01.747Z,0
2017-11-22T04:44:10.372Z,0
2017-11-22T04:45:18.995Z,0
2017-11-22T04:46:27.622Z,0
2017-11-22T04:47:36.254Z,0
2017-11-22T04:48:44.871Z,0
2017-11-22T04:49:53.502Z,0
2017-11-22T04:51:02.129Z,0
2017-11-22T04:52:10.750Z,0
2017-11-22T04:53:19.384Z,0
2017-11-22T04:54:28.273Z,0
2017-11-22T04:55:36.903Z,0
2017-11-22T04:56:45.536Z,0
2017-11-22T04:57:54.155Z,0
2017-11-22T04:59:02.792Z,0
2017-11-22T05:00:11.683Z,0
2017-11-22T05:01:20.322Z,0
2017-11-22T05:02:28.944Z,0
2017-11-22T05:03:37.568Z,0
2017-11-22T05:04:46.194Z,0
2017-11-22T05:05:54.824Z,0
2017-11-22T05:07:03.447Z,0
2017-11-22T05:08:12.070Z,0
2017-11-22T05:09:20.694Z,0
2017-11-22T05:10:29.326Z,0
2017-11-22T05:11:37.948Z,0
2017-11-22T05:12:46.571Z,0
2017-11-22T05:13:55.202Z,0
2017-11-22T05:15:03.831Z,0
2017-11-22T05:16:12.451Z,0
2017-11-22T05:17:21.084Z,0
2017-11-22T05:18:29.711Z,0
2017-11-22T05:19:38.333Z,0
2017-11-22T05:20:47.226Z,0
2017-11-22T05:21:55.868Z,0
2017-11-22T05:23:04.484Z,0
2017-11-22T05:24:13.114Z,0
2017-11-22T05:25:21.735Z,0
2017-11-22T05:26:30.368Z,0
2017-11-22T05:27:38.998Z,0
2017-11-22T05:28:47.887Z,0
2017-11-22T05:29:56.779Z,0
2017-11-22T05:31:05.410Z,0
2017-11-22T05:32:14.036Z,0
2017-11-22T05:33:22.659Z,0
2017-11-22T05:34:31.293Z,0
2017-11-22T05:35:39.917Z,0
2017-11-22T05:36:48.559Z,0
2017-11-22T05:37:57.175Z,0
2017-11-22T05:39:05.808Z,0
2017-11-22T05:40:14.439Z,0
2017-11-22T05:41:23.062Z,0
2017-11-22T05:42:31.687Z,0
2017-11-22T05:43:40.321Z,0
2017-11-22T05:44:48.948Z,0
2017-11-22T05:45:57.571Z,0
2017-11-22T05:47:06.207Z,0
2017-11-22T05:48:15.100Z,0
2017-11-22T05:49:23.725Z,0
2017-11-22T05:50:32.362Z,0
2017-11-22T05:51:40.978Z,0
2017-11-22T05:52:49.610Z,0
2017-11-22T05:53:58.232Z,0
2017-11-22T05:55:06.880Z,0
2017-11-22T05:56:15.498Z,0
2017-11-22T05:57:24.118Z,0
2017-11-22T05:58:32.738Z,0
2017-11-22T05:59:41.625Z,0
2017-11-22T06:00:50.518Z,0
2017-11-22T06:01:59.156Z,0
2017-11-22T06:03:07.781Z,0
2017-11-22T06:04:16.403Z,0
2017-11-22T06:05:25.035Z,0
2017-11-22T06:06:33.656Z,0
2017-11-22T06:07:42.302Z,0
2017-11-22T06:08:50.927Z,0
2017-11-22T06:09:59.550Z,0
2017-11-22T06:11:08.188Z,0
2017-11-22T06:12:17.083Z,0
2017-11-22T06:13:25.707Z,0
2017-11-22T06:14:34.341Z,0
2017-11-22T06:15:42.966Z,0
2017-11-22T06:16:51.588Z,0
2017-11-22T06:18:00.219Z,0
2017-11-22T06:19:08.846Z,0
2017-11-22T06:20:17.470Z,0
2017-11-22T06:21:26.098Z,0
2017-11-22T06:22:34.723Z,0
2017-11-22T06:23:43.356Z,0
2017-11-22T06:24:51.983Z,0
2017-11-22T06:26:00.607Z,0
2017-11-22T06:27:09.236Z,0
2017-11-22T06:28:17.872Z,0
2017-11-22T06:29:26.491Z,0
2017-11-22T06:30:35.122Z,0
2017-11-22T06:31:43.752Z,0
2017-11-22T06:32:52.373Z,0
2017-11-22T06:34:01.002Z,0
2017-11-22T06:35:09.630Z,4
2017-11-22T06:36:18.261Z,4
2017-11-22T06:37:27.157Z,4
2017-11-22T06:38:35.778Z,0
2017-11-22T06:39:44.407Z,4
2017-11-22T06:40:53.037Z,4
2017-11-22T06:42:01.657Z,8
2017-11-22T06:43:10.288Z,4
2017-11-22T06:44:18.920Z,8
2017-11-22T06:45:27.816Z,8
2017-11-22T06:46:36.448Z,12
2017-11-22T06:47:45.077Z,12
2017-11-22T06:48:53.704Z,16
2017-11-22T06:50:02.339Z,12
2017-11-22T06:51:11.242Z,12
2017-11-22T06:52:19.849Z,12
2017-11-22T06:53:28.746Z,16
2017-11-22T06:54:37.374Z,16
2017-11-22T06:55:45.997Z,20
2017-11-22T06:56:54.634Z,20
2017-11-22T06:58:03.266Z,24
2017-11-22T06:59:11.898Z,28
2017-11-22T07:00:20.522Z,32
2017-11-22T07:01:29.153Z,36
2017-11-22T07:02:37.787Z,36
2017-11-22T07:03:46.412Z,44
2017-11-22T07:04:55.044Z,44
2017-11-22T07:06:03.664Z,48
2017-11-22T07:07:12.291Z,52
2017-11-22T07:08:20.922Z,56
2017-11-22T07:09:29.542Z,56
2017-11-22T07:10:38.175Z,56
2017-11-22T07:11:46.806Z,56
2017-11-22T07:12:55.430Z,60
2017-11-22T07:14:04.057Z,64
2017-11-22T07:15:12.693Z,72
2017-11-22T07:16:21.321Z,84
2017-11-22T07:17:29.950Z,96
2017-11-22T07:18:38.592Z,96
2017-11-22T07:19:47.491Z,100
2017-11-22T07:20:56.122Z,100
2017-11-22T07:22:04.749Z,108
2017-11-22T07:23:13.373Z,120
2017-11-22T07:24:22.007Z,124
2017-11-22T07:25:30.631Z,120
2017-11-22T07:26:39.256Z,124
2017-11-22T07:27:48.161Z,140
2017-11-22T07:28:56.789Z,156
2017-11-22T07:30:05.410Z,168
2017-11-22T07:31:14.040Z,184
2017-11-22T07:32:22.672Z,192
2017-11-22T07:33:31.292Z,192
2017-11-22T07:34:39.926Z,188
2017-11-22T07:35:48.552Z,184
2017-11-22T07:36:57.187Z,188
2017-11-22T07:38:05.813Z,192
2017-11-22T07:39:14.437Z,204
2017-11-22T07:40:23.071Z,204
2017-11-22T07:41:31.699Z,220
2017-11-22T07:42:40.321Z,224
2017-11-22T07:43:49.482Z,256
2017-11-22T07:44:58.112Z,264
2017-11-22T07:46:06.729Z,280
2017-11-22T07:47:15.362Z,284
2017-11-22T07:48:23.990Z,280
2017-11-22T07:49:32.622Z,272
2017-11-22T07:50:41.512Z,268
2017-11-22T07:51:50.138Z,312
2017-11-22T07:52:59.029Z,336
2017-11-22T07:54:07.663Z,352
2017-11-22T07:55:16.283Z,380
2017-11-22T07:56:24.919Z,392
2017-11-22T07:57:33.546Z,392
2017-11-22T07:58:42.180Z,380
2017-11-22T07:59:50.809Z,376
2017-11-22T08:00:59.428Z,384
2017-11-22T08:02:08.057Z,392
2017-11-22T08:03:16.686Z,396
2017-11-22T08:04:25.324Z,412
2017-11-22T08:05:34.225Z,440
2017-11-22T08:06:42.843Z,468
2017-11-22T08:07:51.474Z,488
2017-11-22T08:09:00.102Z,500
2017-11-22T08:10:08.723Z,516
2017-11-22T08:11:17.374Z,556
2017-11-22T08:12:26.003Z,588
2017-11-22T08:13:34.626Z,632
2017-11-22T08:14:43.357Z,692
2017-11-22T08:15:51.986Z,728
2017-11-22T08:17:00.609Z,704
2017-11-22T08:18:09.251Z,728
2017-11-22T08:19:17.874Z,744
2017-11-22T08:20:26.506Z,760
2017-11-22T08:21:35.137Z,772
2017-11-22T08:22:43.762Z,800
2017-11-22T08:23:52.392Z,812
2017-11-22T08:25:01.023Z,844
2017-11-22T08:26:09.654Z,864
2017-11-22T08:27:18.286Z,916
2017-11-22T08:28:26.908Z,944
2017-11-22T08:29:35.541Z,960
2017-11-22T08:30:44.175Z,964
2017-11-22T08:31:52.803Z,960
2017-11-22T08:33:01.435Z,960
2017-11-22T08:34:10.066Z,980
2017-11-22T08:35:18.955Z,972
2017-11-22T08:36:27.591Z,980
2017-11-22T08:37:36.209Z,1036
2017-11-22T08:38:44.846Z,1112
2017-11-22T08:39:53.474Z,1192
2017-11-22T08:41:02.365Z,1280
2017-11-22T08:42:11.265Z,1360
2017-11-22T08:43:19.896Z,1424
2017-11-22T08:44:28.527Z,1460
2017-11-22T08:45:37.149Z,1480
2017-11-22T08:46:45.783Z,1484
2017-11-22T08:47:54.408Z,1492
2017-11-22T08:49:03.624Z,1476
2017-11-22T08:50:12.631Z,1420
2017-11-22T08:51:21.268Z,1412
2017-11-22T08:52:30.157Z,1412
2017-11-22T08:53:38.778Z,1428
2017-11-22T08:54:47.692Z,1456
2017-11-22T08:55:56.314Z,1516
2017-11-22T08:57:04.948Z,1580
2017-11-22T08:58:13.574Z,1648
2017-11-22T08:59:22.222Z,1736
2017-11-22T09:00:30.830Z,1864
2017-11-22T09:01:39.462Z,1996
2017-11-22T09:02:48.094Z,2104
2017-11-22T09:03:56.720Z,2148
2017-11-22T09:05:05.346Z,2160
2017-11-22T09:06:13.974Z,2104
2017-11-22T09:07:22.606Z,1932
2017-11-22T09:08:31.227Z,1784
2017-11-22T09:09:39.861Z,1736
2017-11-22T09:10:48.487Z,1724
2017-11-22T09:11:57.117Z,1720
2017-11-22T09:13:05.752Z,1684
2017-11-22T09:14:14.377Z,1680
2017-11-22T09:15:23.004Z,1716
2017-11-22T09:16:31.635Z,1792
2017-11-22T09:17:40.257Z,1844
2017-11-22T09:18:48.889Z,1896
2017-11-22T09:19:57.522Z,1900
2017-11-22T09:21:06.437Z,1896
2017-11-22T09:22:15.068Z,1844
2017-11-22T09:23:23.698Z,1856
2017-11-22T09:24:32.323Z,1872
2017-11-22T09:25:40.953Z,1808
2017-11-22T09:26:49.589Z,1740
2017-11-22T09:27:58.217Z,1728
2017-11-22T09:29:07.115Z,1764
2017-11-22T09:30:16.013Z,1952
2017-11-22T09:31:24.634Z,2140
2017-11-22T09:32:33.271Z,2228
2017-11-22T09:33:41.900Z,2264
2017-11-22T09:34:50.526Z,2168
2017-11-22T09:35:59.165Z,2288
2017-11-22T09:37:07.789Z,2508
2017-11-22T09:38:16.416Z,2680
2017-11-22T09:39:25.050Z,2796
2017-11-22T09:40:33.681Z,2836
2017-11-22T09:41:42.301Z,2792
2017-11-22T09:42:50.934Z,2664
2017-11-22T09:43:59.566Z,2696
2017-11-22T09:45:08.199Z,2740
2017-11-22T09:46:16.825Z,2748
2017-11-22T09:47:25.453Z,2720
2017-11-22T09:48:34.083Z,2576
2017-11-22T09:49:42.719Z,2424
2017-11-22T09:50:51.337Z,2336
2017-11-22T09:52:00.240Z,2292
2017-11-22T09:53:08.863Z,2232
2017-11-22T09:54:17.494Z,2196
2017-11-22T09:55:26.124Z,2120
2017-11-22T09:56:34.749Z,2152
2017-11-22T09:57:43.380Z,2216
2017-11-22T09:58:52.020Z,2276
2017-11-22T10:00:00.639Z,2292
2017-11-22T10:01:09.269Z,2176
2017-11-22T10:02:17.904Z,2096
2017-11-22T10:03:26.540Z,2044
2017-11-22T10:04:35.171Z,2200
2017-11-22T10:05:43.796Z,2280
2017-11-22T10:06:52.426Z,2380
2017-11-22T10:08:01.063Z,2424
2017-11-22T10:09:09.684Z,2272
2017-11-22T10:10:18.318Z,2088
2017-11-22T10:11:26.947Z,2216
2017-11-22T10:12:35.571Z,2288
2017-11-22T10:13:44.202Z,2372
2017-11-22T10:14:52.835Z,2352
2017-11-22T10:16:01.470Z,2208
2017-11-22T10:17:10.633Z,1960
2017-11-22T10:18:19.524Z,2148
2017-11-22T10:19:28.430Z,2196
2017-11-22T10:20:37.061Z,2208
2017-11-22T10:21:45.684Z,2056
2017-11-22T10:22:54.315Z,2216
2017-11-22T10:24:02.954Z,2260
2017-11-22T10:25:11.572Z,1940
2017-11-22T10:26:20.208Z,1908
2017-11-22T10:27:28.840Z,1716
2017-11-22T10:28:37.469Z,1812
2017-11-22T10:29:46.114Z,1964
2017-11-22T10:30:55.025Z,1920
2017-11-22T10:32:03.656Z,1952
2017-11-22T10:33:12.286Z,1976
2017-11-22T10:34:20.920Z,2048
2017-11-22T10:35:29.540Z,2020
2017-11-22T10:36:38.177Z,2048
2017-11-22T10:37:46.803Z,2112
2017-11-22T10:38:55.705Z,1960
2017-11-22T10:40:04.343Z,2020
2017-11-22T10:41:12.973Z,2044
2017-11-22T10:42:21.598Z,2032
2017-11-22T10:43:30.228Z,1928
2017-11-22T10:44:38.853Z,2020
2017-11-22T10:45:47.494Z,2000
2017-11-22T10:46:56.124Z,1888
2017-11-22T10:48:05.097Z,1944
2017-11-22T10:49:13.835Z,1852
2017-11-22T10:50:22.457Z,1924
2017-11-22T10:51:31.091Z,2020
2017-11-22T10:52:40.608Z,1836
2017-11-22T10:53:49.440Z,1680
2017-11-22T10:54:58.497Z,1608
2017-11-22T10:56:08.954Z,1472
2017-11-22T10:57:18.327Z,1356
2017-11-22T10:58:27.030Z,1212
2017-11-22T10:59:35.812Z,1120
2017-11-22T11:00:44.454Z,1224
2017-11-22T11:01:53.349Z,1364
2017-11-22T11:03:01.982Z,1348
2017-11-22T11:04:10.626Z,1360
2017-11-22T11:05:19.249Z,1488
2017-11-22T11:06:27.879Z,1528
2017-11-22T11:07:36.525Z,1700
2017-11-22T11:08:45.146Z,1444
2017-11-22T11:09:53.805Z,1404
2017-11-22T11:11:02.434Z,1484
2017-11-22T11:12:11.066Z,1468
2017-11-22T11:13:19.740Z,1456
2017-11-22T11:14:30.265Z,1524
2017-11-22T11:15:39.726Z,1496
2017-11-22T11:16:48.359Z,1596
2017-11-22T11:17:56.985Z,1660
2017-11-22T11:19:05.685Z,1552
2017-11-22T11:20:14.375Z,1524
2017-11-22T11:21:23.016Z,1496
2017-11-22T11:22:31.698Z,1584
2017-11-22T11:23:40.336Z,1728
2017-11-22T11:24:49.011Z,1656
2017-11-22T11:25:57.637Z,1480
2017-11-22T11:27:06.270Z,1536
2017-11-22T11:28:14.898Z,1544
2017-11-22T11:29:23.529Z,1492
2017-11-22T11:30:32.178Z,1584
2017-11-22T11:31:40.786Z,1880
2017-11-22T11:32:49.418Z,2096
2017-11-22T11:33:58.052Z,2464
2017-11-22T11:35:06.672Z,2656
2017-11-22T11:36:15.305Z,3000
2017-11-22T11:37:23.936Z,3312
2017-11-22T11:38:32.684Z,3336
2017-11-22T11:39:42.886Z,3208
2017-11-22T11:40:51.523Z,3664
2017-11-22T11:42:00.150Z,3904
2017-11-22T11:43:08.781Z,3836
2017-11-22T11:44:17.408Z,3780
2017-11-22T11:45:26.037Z,4016
2017-11-22T11:46:34.667Z,4072
2017-11-22T11:47:43.294Z,4072
2017-11-22T11:48:51.923Z,4088
2017-11-22T11:50:00.566Z,3924
2017-11-22T11:51:09.188Z,4064
2017-11-22T11:52:17.822Z,4144
2017-11-22T11:53:26.452Z,4160
2017-11-22T11:54:35.088Z,4136
2017-11-22T11:55:43.719Z,4140
2017-11-22T11:56:52.345Z,4216
2017-11-22T11:58:00.983Z,4168
2017-11-22T11:59:09.609Z,4256
2017-11-22T12:00:18.252Z,4080
2017-11-22T12:01:26.870Z,4100
2017-11-22T12:02:35.496Z,4012
2017-11-22T12:03:44.126Z,3768
2017-11-22T12:04:53.026Z,3764
2017-11-22T12:06:01.664Z,3760
2017-11-22T12:07:10.555Z,3680
2017-11-22T12:08:19.192Z,3632
2017-11-22T12:09:27.845Z,3616
2017-11-22T12:10:36.816Z,3612
2017-11-22T12:11:45.457Z,3448
2017-11-22T12:12:54.473Z,3356
2017-11-22T12:14:03.119Z,3200
2017-11-22T12:15:11.752Z,3036
2017-11-22T12:16:20.373Z,3012
2017-11-22T12:17:29.010Z,2932
2017-11-22T12:18:37.635Z,2920
2017-11-22T12:19:46.285Z,2820
2017-11-22T12:20:55.243Z,2772
2017-11-22T12:22:03.913Z,2800
2017-11-22T12:23:12.645Z,2880
2017-11-22T12:24:21.275Z,2896
2017-11-22T12:25:29.903Z,2876
2017-11-22T12:26:38.549Z,2828
2017-11-22T12:27:47.212Z,2840
2017-11-22T12:28:56.124Z,2836
2017-11-22T12:30:05.156Z,2840
2017-11-22T12:31:13.828Z,2816
2017-11-22T12:32:22.901Z,2836
2017-11-22T12:33:31.540Z,2836
2017-11-22T12:34:40.195Z,2852
2017-11-22T12:35:49.104Z,2868
2017-11-22T12:36:58.264Z,3048
2017-11-22T12:38:06.894Z,3148
2017-11-22T12:39:15.539Z,3168
2017-11-22T12:40:24.461Z,3332
2017-11-22T12:41:33.090Z,3500
2017-11-22T12:42:41.717Z,3564
2017-11-22T12:43:50.342Z,3668
2017-11-22T12:44:58.976Z,3740
2017-11-22T12:46:07.603Z,3892
2017-11-22T12:47:16.231Z,3956
2017-11-22T12:48:24.866Z,3960
2017-11-22T12:49:33.488Z,3968
2017-11-22T12:50:42.122Z,3872
2017-11-22T12:51:50.753Z,3800
2017-11-22T12:52:59.379Z,3700
2017-11-22T12:54:08.282Z,3720
2017-11-22T12:55:16.908Z,3644
2017-11-22T12:56:25.542Z,3508
2017-11-22T12:57:34.166Z,3376
2017-11-22T12:58:42.800Z,3252
2017-11-22T12:59:51.431Z,3124
2017-11-22T13:01:00.062Z,3036
2017-11-22T13:02:08.688Z,2936
2017-11-22T13:03:17.328Z,2856
2017-11-22T13:04:25.965Z,2792
2017-11-22T13:05:34.585Z,2716
2017-11-22T13:06:43.495Z,2648
2017-11-22T13:07:52.119Z,2572
2017-11-22T13:09:00.750Z,2492
2017-11-22T13:10:09.381Z,2436
2017-11-22T13:11:18.010Z,2376
2017-11-22T13:12:26.644Z,2336
2017-11-22T13:13:35.267Z,2292
2017-11-22T13:14:45.756Z,2252
2017-11-22T13:15:54.397Z,2212
2017-11-22T13:17:03.299Z,2184
2017-11-22T13:18:11.925Z,2140
2017-11-22T13:19:20.560Z,2120
2017-11-22T13:20:29.193Z,2112
2017-11-22T13:21:37.817Z,2064
2017-11-22T13:22:46.448Z,2036
2017-11-22T13:23:55.077Z,2024
2017-11-22T13:25:03.703Z,2008
2017-11-22T13:26:12.337Z,1980
2017-11-22T13:27:20.963Z,1972
2017-11-22T13:28:29.886Z,1960
2017-11-22T13:29:38.518Z,1940
2017-11-22T13:30:47.138Z,1920
2017-11-22T13:31:55.774Z,1912
2017-11-22T13:33:04.408Z,1900
2017-11-22T13:34:13.036Z,1908
2017-11-22T13:35:21.664Z,1880
2017-11-22T13:36:30.296Z,1864
2017-11-22T13:37:38.922Z,1864
2017-11-22T13:38:47.549Z,1840
2017-11-22T13:39:56.186Z,1820
2017-11-22T13:41:04.814Z,1812
2017-11-22T13:42:13.446Z,1804
2017-11-22T13:43:22.071Z,1772
2017-11-22T13:44:30.702Z,1728
2017-11-22T13:45:39.333Z,1692
2017-11-22T13:46:47.964Z,1700
2017-11-22T13:47:56.604Z,1700
2017-11-22T13:49:05.232Z,1676
2017-11-22T13:50:13.867Z,1668
2017-11-22T13:51:22.501Z,1660
2017-11-22T13:52:31.126Z,1640
2017-11-22T13:53:39.761Z,1620
2017-11-22T13:54:48.395Z,1600
2017-11-22T13:55:57.029Z,1592
2017-11-22T13:57:05.660Z,1572
2017-11-22T13:58:14.287Z,1556
2017-11-22T13:59:22.920Z,1540
2017-11-22T14:00:31.560Z,1520
2017-11-22T14:01:40.176Z,1504
2017-11-22T14:02:48.808Z,1488
2017-11-22T14:03:57.441Z,1472
2017-11-22T14:05:06.072Z,1456
2017-11-22T14:06:14.699Z,1444
2017-11-22T14:07:23.337Z,1424
2017-11-22T14:08:31.963Z,1404
2017-11-22T14:09:40.598Z,1384
2017-11-22T14:10:49.223Z,1372
2017-11-22T14:11:57.861Z,1356
2017-11-22T14:13:06.517Z,1336
2017-11-22T14:14:15.123Z,1316
2017-11-22T14:15:24.018Z,1296
2017-11-22T14:16:32.649Z,1288
2017-11-22T14:17:41.271Z,1276
2017-11-22T14:18:50.174Z,1260
2017-11-22T14:19:58.814Z,1244
2017-11-22T14:21:07.440Z,1232
2017-11-22T14:22:16.066Z,1212
2017-11-22T14:23:24.699Z,1196
2017-11-22T14:24:33.590Z,1180
2017-11-22T14:25:42.494Z,1164
2017-11-22T14:26:51.121Z,1144
2017-11-22T14:28:00.281Z,1132
2017-11-22T14:29:09.194Z,1112
2017-11-22T14:30:17.818Z,1092
2017-11-22T14:31:26.445Z,1072
2017-11-22T14:32:35.083Z,1052
2017-11-22T14:33:43.712Z,1032
2017-11-22T14:34:52.333Z,1012
2017-11-22T14:36:01.246Z,996
2017-11-22T14:37:09.878Z,984
2017-11-22T14:38:18.504Z,968
2017-11-22T14:39:27.136Z,948
2017-11-22T14:40:35.770Z,932
2017-11-22T14:41:44.668Z,908
2017-11-22T14:42:53.301Z,892
2017-11-22T14:44:02.200Z,868
2017-11-22T14:45:10.836Z,852
2017-11-22T14:46:19.462Z,836
2017-11-22T14:47:28.105Z,816
2017-11-22T14:48:36.730Z,800
2017-11-22T14:49:45.361Z,780
2017-11-22T14:50:54.257Z,760
2017-11-22T14:52:02.887Z,748
2017-11-22T14:53:11.509Z,732
2017-11-22T14:54:20.144Z,716
2017-11-22T14:55:28.770Z,696
2017-11-22T14:56:37.408Z,680
2017-11-22T14:57:46.039Z,660
2017-11-22T14:58:54.664Z,644
2017-11-22T15:00:03.297Z,624
2017-11-22T15:01:12.209Z,604
2017-11-22T15:02:20.827Z,584
2017-11-22T15:03:29.723Z,568
2017-11-22T15:04:38.356Z,544
2017-11-22T15:05:46.981Z,524
2017-11-22T15:06:55.622Z,504
2017-11-22T15:08:04.244Z,484
2017-11-22T15:09:12.877Z,464
2017-11-22T15:10:21.508Z,448
2017-11-22T15:11:30.132Z,428
2017-11-22T15:12:38.764Z,408
2017-11-22T15:13:47.396Z,388
2017-11-22T15:14:56.019Z,368
2017-11-22T15:16:04.651Z,348
2017-11-22T15:17:13.285Z,328
2017-11-22T15:18:21.909Z,308
2017-11-22T15:19:30.540Z,292
2017-11-22T15:20:39.175Z,272
2017-11-22T15:21:47.801Z,256
2017-11-22T15:22:56.432Z,240
2017-11-22T15:24:05.055Z,220
2017-11-22T15:25:13.684Z,204
2017-11-22T15:26:22.322Z,188
2017-11-22T15:27:30.949Z,176
2017-11-22T15:28:39.578Z,160
2017-11-22T15:29:48.754Z,144
2017-11-22T15:30:57.379Z,132
2017-11-22T15:32:06.006Z,124
2017-11-22T15:33:14.642Z,108
2017-11-22T15:34:23.269Z,96
2017-11-22T15:35:31.894Z,88
2017-11-22T15:36:40.791Z,76
2017-11-22T15:37:49.687Z,68
2017-11-22T15:38:58.328Z,60
2017-11-22T15:40:06.953Z,52
2017-11-22T15:41:15.586Z,44
2017-11-22T15:42:24.224Z,40
2017-11-22T15:43:32.849Z,32
2017-11-22T15:44:41.474Z,32
2017-11-22T15:45:50.104Z,24
2017-11-22T15:46:58.729Z,20
2017-11-22T15:48:07.369Z,20
2017-11-22T15:49:15.993Z,16
2017-11-22T15:50:24.622Z,12
2017-11-22T15:51:33.256Z,12
2017-11-22T15:52:41.877Z,12
2017-11-22T15:53:50.510Z,8
2017-11-22T15:54:59.135Z,4
2017-11-22T15:56:07.763Z,4
2017-11-22T15:57:16.402Z,4
2017-11-22T15:58:25.031Z,4
2017-11-22T15:59:33.658Z,4
2017-11-22T16:00:42.561Z,4
2017-11-22T16:01:51.194Z,4
2017-11-22T16:02:59.819Z,0
2017-11-22T16:04:08.450Z,4